Terminal Aerodrome Forecast
Issued by NWS

Home | Current Version | Previous Version | Text Only | Print | Product List | Glossary On
Versions: 1 2 3 4 5 6 7 8 9 10 11 12 13 14 15 16
000
FTUS41 KILN 240536
TAFLCK
TAF
KLCK 240536Z 2406/2506 16007KT P6SM VCSH SCT050 OVC090
     FM240800 18008KT P6SM SCT045 BKN130 WS020/21040KT
     FM241400 21013G23KT P6SM SCT035 BKN090
     FM241600 21014G24KT P6SM BKN035
     FM250000 21009KT P6SM BKN080=

USA.gov is the U.S. government's official web portal to all federal, state and local government web resources and services.